Time;durP1;ratioP1;P1;durP2;ratioP2;P2;SDS_P1;SDS_P2;PMS_P1;PMS_P2;Temp;Humidity;BMP_temperature;BMP_pressure;BME280_temperature;BME280_humidity;BME280_pressure;Samples;Min_cycle;Max_cycle;Signal;HPM_P1;HPM_P2
2022/06/10 00:00:26;;;;;;;10.02;2.80;;;14.60;99.90;;;;;;5020818;28;20429;-71
2022/06/10 00:02:52;;;;;;;10.10;2.95;;;14.60;99.90;;;;;;5029384;28;20119;-71
2022/06/10 00:05:22;;;;;;;9.32;2.78;;;15.00;99.90;;;;;;5029856;28;20049;-71
2022/06/10 00:07:49;;;;;;;7.63;2.90;;;14.50;99.90;;;;;;5028414;28;20045;-72
2022/06/10 00:10:16;;;;;;;10.70;3.00;;;14.60;99.90;;;;;;5029896;28;20378;-71
2022/06/10 00:12:42;;;;;;;11.27;2.90;;;14.60;99.90;;;;;;5029666;28;20053;-71
2022/06/10 00:15:09;;;;;;;14.65;3.25;;;14.50;99.90;;;;;;5029168;28;20050;-72
2022/06/10 00:17:35;;;;;;;9.55;2.78;;;14.30;99.90;;;;;;5030338;28;20116;-72
2022/06/10 00:20:03;;;;;;;10.32;2.90;;;14.60;99.90;;;;;;5029719;28;20041;-72
2022/06/10 00:22:29;;;;;;;9.00;2.80;;;14.30;99.90;;;;;;5027813;28;20056;-71
2022/06/10 00:24:54;;;;;;;11.63;3.10;;;14.70;99.90;;;;;;5026930;28;20046;-71
2022/06/10 00:27:20;;;;;;;8.93;2.80;;;14.20;99.90;;;;;;5031360;28;20049;-71
2022/06/10 00:29:47;;;;;;;8.82;2.90;;;14.20;99.90;;;;;;5030702;28;20041;-71
2022/06/10 00:32:13;;;;;;;8.38;3.13;;;14.80;99.90;;;;;;5029417;28;20080;-71
2022/06/10 00:34:39;;;;;;;10.50;2.80;;;14.60;99.90;;;;;;5029845;28;20041;-71
2022/06/10 00:37:06;;;;;;;8.20;3.10;;;15.00;99.90;;;;;;5014569;28;20103;-71
2022/06/10 00:39:34;;;;;;;9.10;2.90;;;14.20;99.90;;;;;;5028310;28;20128;-71
2022/06/10 00:42:01;;;;;;;9.85;2.65;;;14.50;99.90;;;;;;5028868;28;20048;-71
2022/06/10 00:44:48;;;;;;;10.68;3.10;;;14.10;99.90;;;;;;4995489;28;20052;-72
2022/06/10 00:47:17;;;;;;;12.05;3.65;;;14.10;99.90;;;;;;5028238;28;20061;-71
2022/06/10 00:50:18;;;;;;;12.93;3.10;;;14.10;99.90;;;;;;5028285;28;20092;-71
2022/06/10 00:52:53;;;;;;;9.73;2.70;;;14.10;99.90;;;;;;5024335;28;20123;-72
2022/06/10 00:55:28;;;;;;;10.23;3.15;;;14.10;99.90;;;;;;5028851;28;20041;-72
2022/06/10 00:58:05;;;;;;;12.52;3.38;;;14.10;99.90;;;;;;5007414;28;20355;-72
2022/06/10 01:00:31;;;;;;;13.05;3.75;;;14.00;99.90;;;;;;5028682;28;20493;-72
2022/06/10 01:02:57;;;;;;;9.50;3.00;;;14.00;99.90;;;;;;5028387;28;20494;-72
2022/06/10 01:05:26;;;;;;;7.63;2.90;;;14.00;99.90;;;;;;5027594;28;20079;-71
2022/06/10 01:08:00;;;;;;;11.55;3.20;;;13.90;99.90;;;;;;5030575;28;20136;-71
2022/06/10 01:10:27;;;;;;;9.75;3.42;;;14.20;99.90;;;;;;5027928;28;20464;-71
2022/06/10 01:13:13;;;;;;;10.88;3.10;;;13.90;99.90;;;;;;5007958;28;20498;-72
2022/06/10 01:16:13;;;;;;;13.52;3.85;;;13.80;99.90;;;;;;5007969;28;20514;-72
2022/06/10 01:19:28;;;;;;;9.15;2.90;;;13.80;99.90;;;;;;4992672;28;20586;-72
2022/06/10 01:22:20;;;;;;;11.18;3.30;;;13.80;99.90;;;;;;4928753;29;20110;-72
2022/06/10 01:25:15;;;;;;;11.82;3.25;;;13.70;99.90;;;;;;4924196;29;20052;-71
2022/06/10 01:27:54;;;;;;;11.70;3.60;;;13.70;99.90;;;;;;4997666;28;20127;-72
2022/06/10 01:30:34;;;;;;;9.13;3.33;;;13.70;99.90;;;;;;5028393;28;20379;-71
2022/06/10 01:33:19;;;;;;;13.15;3.53;;;13.80;99.90;;;;;;5027957;28;20057;-71
2022/06/10 01:36:12;;;;;;;9.55;3.28;;;13.80;99.90;;;;;;5010640;28;20045;-72
2022/06/10 01:39:08;;;;;;;8.57;3.13;;;13.70;99.90;;;;;;5027324;28;20148;-71
2022/06/10 01:41:38;;;;;;;;;;;13.70;99.90;;;;;;5028991;28;20041;-71
2022/06/10 01:44:04;;;;;;;10.00;3.20;;;13.60;99.90;;;;;;5028107;28;19939;-72
2022/06/10 01:46:35;;;;;;;12.00;3.65;;;13.60;99.90;;;;;;5026582;28;20049;-72
2022/06/10 01:49:24;;;;;;;15.13;3.70;;;13.60;99.90;;;;;;5028353;28;20053;-72
2022/06/10 01:52:04;;;;;;;16.30;3.63;;;13.50;99.90;;;;;;5010367;28;20049;-71
2022/06/10 01:55:08;;;;;;;11.10;3.42;;;13.50;99.90;;;;;;5026867;28;20371;-72
2022/06/10 01:57:40;;;;;;;8.65;3.33;;;13.40;99.90;;;;;;5027345;28;20084;-71
2022/06/10 02:00:16;;;;;;;11.70;3.90;;;13.40;99.90;;;;;;5012878;28;20137;-72
2022/06/10 02:02:51;;;;;;;13.98;3.83;;;13.40;99.90;;;;;;5027530;28;20128;-71
2022/06/10 02:05:21;;;;;;;12.30;3.92;;;13.30;99.90;;;;;;5027692;28;20060;-72
2022/06/10 02:07:52;;;;;;;10.70;3.15;;;13.30;99.90;;;;;;5027507;28;20072;-71
2022/06/10 02:10:31;;;;;;;13.50;3.60;;;13.30;99.90;;;;;;5027636;28;20042;-72
2022/06/10 02:13:01;;;;;;;12.07;4.05;;;13.30;99.90;;;;;;5027926;28;20041;-72
2022/06/10 02:15:38;;;;;;;11.65;3.55;;;13.20;99.90;;;;;;5009239;28;20041;-71
2022/06/10 02:18:15;;;;;;;13.27;3.65;;;13.30;99.90;;;;;;5027831;28;20045;-72
2022/06/10 02:20:47;;;;;;;14.18;3.47;;;13.30;99.90;;;;;;5026733;28;20045;-72
2022/06/10 02:23:18;;;;;;;11.90;3.65;;;13.40;99.90;;;;;;5026738;28;20128;-72
2022/06/10 02:25:49;;;;;;;13.38;3.60;;;13.30;99.90;;;;;;5028089;28;20481;-72
2022/06/10 02:28:29;;;;;;;10.75;3.42;;;13.20;99.90;;;;;;5026542;28;20124;-72
2022/06/10 02:31:00;;;;;;;10.93;3.60;;;13.20;99.90;;;;;;5031427;28;20041;-72
2022/06/10 02:33:26;;;;;;;11.63;3.72;;;13.70;99.90;;;;;;5031612;28;20257;-72
2022/06/10 02:36:01;;;;;;;14.50;3.50;;;13.20;99.90;;;;;;5030320;28;20284;-72
2022/06/10 02:38:41;;;;;;;11.95;3.75;;;13.20;99.90;;;;;;5031807;28;20045;-72
2022/06/10 02:41:31;;;;;;;8.85;3.42;;;13.10;99.90;;;;;;5031809;28;20064;-72
2022/06/10 02:44:35;;;;;;;9.32;3.70;;;13.10;99.90;;;;;;5030541;28;20080;-72
2022/06/10 02:47:26;;;;;;;14.07;3.83;;;13.20;99.90;;;;;;5030997;28;20441;-72
2022/06/10 02:49:52;;;;;;;12.60;3.50;;;13.20;99.90;;;;;;5013510;28;20061;-72
2022/06/10 02:52:21;;;;;;;16.23;4.38;;;13.10;99.90;;;;;;5013399;28;20041;-72
2022/06/10 02:54:47;;;;;;;13.52;3.95;;;13.10;99.90;;;;;;5030652;28;20053;-72
2022/06/10 02:57:16;;;;;;;14.77;4.28;;;13.10;99.90;;;;;;5013290;28;20052;-72
2022/06/10 03:02:36;;;;;;;14.48;3.95;;;13.30;99.90;;;;;;5015997;28;20049;-72
2022/06/10 03:05:30;;;;;;;10.68;3.60;;;13.10;99.90;;;;;;5030131;28;20045;-72
2022/06/10 03:08:16;;;;;;;11.02;3.75;;;12.90;99.90;;;;;;5031125;28;20052;-70
2022/06/10 03:10:55;;;;;;;;;;;12.90;99.90;;;;;;5030628;28;20109;-71
2022/06/10 03:13:51;;;;;;;11.52;3.90;;;12.90;99.90;;;;;;5031049;28;20335;-70
2022/06/10 03:16:31;;;;;;;11.50;4.05;;;12.80;99.90;;;;;;5012073;28;20443;-70
2022/06/10 03:19:30;;;;;;;11.10;3.72;;;13.90;99.90;;;;;;5030344;28;20054;-70
2022/06/10 03:22:03;;;;;;;13.68;4.10;;;12.80;99.90;;;;;;5030560;28;20437;-70
2022/06/10 03:24:28;;;;;;;13.45;4.00;;;13.20;99.90;;;;;;5029424;28;20099;-71
2022/06/10 03:27:11;;;;;;;12.18;3.97;;;13.40;99.90;;;;;;5031049;28;20045;-71
2022/06/10 03:29:52;;;;;;;13.38;3.70;;;12.80;99.90;;;;;;5013042;28;20045;-72
2022/06/10 03:32:33;;;;;;;10.63;3.72;;;12.80;99.90;;;;;;5029246;28;20378;-70
2022/06/10 03:35:15;;;;;;;12.07;3.95;;;12.80;99.90;;;;;;5030962;28;20055;-71
2022/06/10 03:37:41;;;;;;;11.88;4.32;;;12.80;99.90;;;;;;5003542;28;20061;-70
2022/06/10 03:40:14;;;;;;;14.38;3.92;;;12.70;99.90;;;;;;5010885;28;20052;-70
2022/06/10 03:42:46;;;;;;;13.60;3.42;;;12.70;99.90;;;;;;4990494;28;20072;-70
2022/06/10 03:45:15;;;;;;;14.05;3.80;;;13.00;99.90;;;;;;5011714;28;20058;-71
2022/06/10 03:47:41;;;;;;;10.75;3.90;;;12.70;99.90;;;;;;5029894;28;20198;-70
2022/06/10 03:50:13;;;;;;;9.90;3.65;;;12.70;99.90;;;;;;5029981;28;20076;-70
2022/06/10 03:52:40;;;;;;;14.20;4.30;;;12.90;99.90;;;;;;5029191;28;20410;-71
2022/06/10 03:55:07;;;;;;;12.60;3.70;;;12.80;99.90;;;;;;5029948;28;20387;-71
2022/06/10 03:57:32;;;;;;;12.25;3.72;;;12.80;99.90;;;;;;4995239;28;20057;-70
2022/06/10 03:59:58;;;;;;;13.02;3.85;;;13.40;99.90;;;;;;4995437;28;20045;-70
2022/06/10 04:02:23;;;;;;;14.45;3.80;;;13.20;99.90;;;;;;5029250;28;20120;-70
2022/06/10 04:04:51;;;;;;;17.45;4.22;;;12.90;99.90;;;;;;5029760;28;20041;-70
2022/06/10 04:07:19;;;;;;;14.07;3.67;;;12.90;99.90;;;;;;5028743;28;20049;-70
2022/06/10 04:09:48;;;;;;;12.55;3.47;;;13.10;99.90;;;;;;5007845;28;20171;-70
2022/06/10 04:12:15;;;;;;;13.05;3.53;;;12.90;99.90;;;;;;4992460;28;20050;-71
2022/06/10 04:14:41;;;;;;;12.05;3.38;;;13.00;99.90;;;;;;5015356;28;20099;-70
2022/06/10 04:17:08;;;;;;;10.82;3.03;;;13.40;99.90;;;;;;5028679;28;20104;-71
2022/06/10 04:19:34;;;;;;;11.77;3.33;;;13.70;99.90;;;;;;5029968;28;20038;-71
2022/06/10 04:22:00;;;;;;;8.50;3.45;;;13.10;99.90;;;;;;5011120;28;20068;-70
2022/06/10 04:24:26;;;;;;;11.50;3.08;;;13.40;99.90;;;;;;5030699;28;20107;-71
2022/06/10 04:26:52;;;;;;;12.15;3.35;;;13.20;99.90;;;;;;5031661;28;20053;-71
2022/06/10 04:29:18;;;;;;;14.85;3.70;;;13.20;99.90;;;;;;5030991;28;20057;-71
2022/06/10 04:31:43;;;;;;;13.90;3.75;;;13.20;99.90;;;;;;5011130;28;20057;-70
2022/06/10 04:34:11;;;;;;;12.82;3.63;;;13.20;99.90;;;;;;5028861;28;20390;-71
2022/06/10 04:36:37;;;;;;;11.90;3.10;;;13.30;99.90;;;;;;5010448;28;20502;-71
2022/06/10 04:39:03;;;;;;;13.15;3.80;;;13.30;99.90;;;;;;5028535;28;20042;-70
2022/06/10 04:41:28;;;;;;;11.02;3.33;;;13.40;99.90;;;;;;5027723;28;20037;-70
2022/06/10 04:43:54;;;;;;;14.05;3.42;;;14.00;99.90;;;;;;5029632;28;20068;-70
2022/06/10 04:46:26;;;;;;;12.70;3.40;;;13.70;99.90;;;;;;5028306;28;20141;-71
2022/06/10 04:48:53;;;;;;;10.10;3.28;;;13.50;99.90;;;;;;5007719;28;20372;-70
2022/06/10 04:51:19;;;;;;;15.48;3.33;;;14.00;99.90;;;;;;5015953;28;20065;-71
2022/06/10 04:53:44;;;;;;;13.20;3.45;;;13.80;99.90;;;;;;5028945;28;20121;-71
2022/06/10 04:56:10;;;;;;;10.90;3.50;;;13.60;99.90;;;;;;4994317;28;20562;-71
2022/06/10 04:58:36;;;;;;;12.90;3.20;;;13.90;99.90;;;;;;5023459;28;20042;-70
2022/06/10 05:01:02;;;;;;;15.65;3.65;;;14.50;99.90;;;;;;5013636;28;20034;-71
2022/06/10 05:03:27;;;;;;;12.15;3.53;;;13.90;99.90;;;;;;5007936;28;20052;-70
2022/06/10 05:05:53;;;;;;;12.30;3.70;;;13.90;99.90;;;;;;4991436;28;20042;-71
2022/06/10 05:08:19;;;;;;;17.17;3.47;;;14.30;99.90;;;;;;5008497;28;20045;-70
2022/06/10 05:10:47;;;;;;;10.85;3.53;;;14.20;99.90;;;;;;5010475;28;20061;-70
2022/06/10 05:13:16;;;;;;;12.35;3.20;;;14.30;99.90;;;;;;4991276;28;20034;-71
2022/06/10 05:15:42;;;;;;;19.15;3.42;;;14.50;99.90;;;;;;5015921;28;20532;-71
2022/06/10 05:18:08;;;;;;;17.55;4.07;;;14.40;99.90;;;;;;5027237;28;20041;-71
2022/06/10 05:20:40;;;;;;;9.32;3.38;;;14.50;99.90;;;;;;5028269;28;20385;-71
2022/06/10 05:23:07;;;;;;;13.15;3.75;;;14.50;99.90;;;;;;5027821;28;20444;-71
2022/06/10 05:25:33;;;;;;;12.93;3.30;;;14.50;99.90;;;;;;5010361;28;20045;-71
2022/06/10 05:27:59;;;;;;;13.93;3.67;;;14.90;99.90;;;;;;5027504;28;20067;-71
2022/06/10 05:30:28;;;;;;;13.20;3.45;;;14.70;99.90;;;;;;5027521;28;20088;-71
2022/06/10 05:32:54;;;;;;;12.40;3.58;;;14.70;99.90;;;;;;5029236;28;20078;-71
2022/06/10 05:35:20;;;;;;;12.95;3.58;;;15.50;99.90;;;;;;5012618;28;20037;-71
2022/06/10 05:37:49;;;;;;;13.30;3.42;;;15.60;99.90;;;;;;4999112;28;20078;-71
2022/06/10 05:40:15;;;;;;;13.15;3.63;;;14.80;99.90;;;;;;5010318;28;20041;-71
2022/06/10 05:42:41;;;;;;;12.30;3.88;;;14.90;99.90;;;;;;5027473;28;20156;-71
2022/06/10 05:45:08;;;;;;;12.57;3.50;;;15.20;99.90;;;;;;5028073;28;20064;-70
2022/06/10 05:47:35;;;;;;;11.40;3.47;;;15.00;99.90;;;;;;5026532;28;20052;-71
2022/06/10 05:50:11;;;;;;;12.93;3.40;;;15.10;99.90;;;;;;5027401;28;20519;-72
2022/06/10 05:52:36;;;;;;;12.75;3.38;;;15.10;99.90;;;;;;5026509;28;20044;-72
2022/06/10 05:55:05;;;;;;;12.43;3.42;;;15.20;99.90;;;;;;5010694;28;20461;-72
2022/06/10 05:57:31;;;;;;;11.52;3.63;;;15.20;99.90;;;;;;5027846;28;20068;-72
2022/06/10 05:59:57;;;;;;;12.02;3.50;;;15.20;99.90;;;;;;5027565;28;20401;-72
2022/06/10 06:02:24;;;;;;;16.08;3.80;;;15.20;99.90;;;;;;5009572;28;20057;-72
2022/06/10 06:04:50;;;;;;;12.90;3.67;;;15.30;99.90;;;;;;5031126;28;20045;-72
2022/06/10 06:07:19;;;;;;;13.65;3.55;;;15.30;99.90;;;;;;5031689;28;20072;-71
2022/06/10 06:09:45;;;;;;;12.40;3.67;;;15.30;99.90;;;;;;5031207;28;20041;-71
2022/06/10 06:12:11;;;;;;;13.95;3.60;;;15.40;99.90;;;;;;5031750;28;20067;-71
2022/06/10 06:14:37;;;;;;;12.00;3.53;;;15.40;99.90;;;;;;5030006;28;20057;-72
2022/06/10 06:17:05;;;;;;;18.85;4.00;;;15.80;99.90;;;;;;5031446;28;20405;-71
2022/06/10 06:19:32;;;;;;;15.40;4.22;;;15.40;99.90;;;;;;5034165;28;20241;-71
2022/06/10 06:21:58;;;;;;;13.75;3.95;;;15.50;99.90;;;;;;5015170;28;20135;-72
2022/06/10 06:24:24;;;;;;;10.30;3.75;;;15.60;99.90;;;;;;5031544;28;20085;-72
2022/06/10 06:26:50;;;;;;;11.48;3.72;;;15.80;99.90;;;;;;5023954;28;20045;-72
2022/06/10 06:29:17;;;;;;;14.10;3.88;;;16.00;99.90;;;;;;5011592;28;20057;-71
2022/06/10 06:31:43;;;;;;;14.80;4.07;;;15.80;99.90;;;;;;5011680;28;20557;-72
2022/06/10 06:34:08;;;;;;;12.43;3.92;;;16.30;99.90;;;;;;5011657;28;20180;-72
2022/06/10 06:36:42;;;;;;;10.98;3.90;;;16.10;99.90;;;;;;5025172;28;20048;-72
2022/06/10 06:39:08;;;;;;;15.73;4.22;;;16.20;99.90;;;;;;5012764;28;20049;-72
2022/06/10 06:41:33;;;;;;;12.80;4.40;;;16.30;99.90;;;;;;5012508;28;20049;-71
2022/06/10 06:43:59;;;;;;;9.85;4.00;;;16.30;99.90;;;;;;5031017;28;20045;-72
2022/06/10 06:46:25;;;;;;;15.25;4.35;;;16.20;99.90;;;;;;5030299;28;20049;-72
2022/06/10 06:48:54;;;;;;;14.20;4.38;;;16.00;99.90;;;;;;5030453;28;20053;-71
2022/06/10 06:51:20;;;;;;;14.70;4.65;;;16.00;99.90;;;;;;5029986;28;20049;-72
2022/06/10 06:53:45;;;;;;;17.52;5.28;;;15.90;99.90;;;;;;5030945;28;20068;-72
2022/06/10 06:56:11;;;;;;;14.07;5.25;;;15.80;99.90;;;;;;5029822;28;20048;-71
2022/06/10 06:58:37;;;;;;;19.25;5.25;;;16.10;99.90;;;;;;5025779;28;20124;-72
2022/06/10 07:01:03;;;;;;;12.57;4.93;;;15.90;99.90;;;;;;4992464;28;20081;-72
2022/06/10 07:03:29;;;;;;;16.17;5.00;;;16.00;99.90;;;;;;5014069;28;20107;-71
2022/06/10 07:05:54;;;;;;;14.85;5.25;;;16.20;99.90;;;;;;5030797;28;20045;-71
2022/06/10 07:08:20;;;;;;;18.63;5.13;;;16.00;99.90;;;;;;5029974;28;20423;-71
2022/06/10 07:10:46;;;;;;;16.02;5.40;;;16.10;99.90;;;;;;5029867;28;20053;-71
2022/06/10 07:13:13;;;;;;;16.52;5.18;;;16.30;99.90;;;;;;5030400;28;20084;-71
2022/06/10 07:15:40;;;;;;;16.02;5.22;;;16.40;99.90;;;;;;5005689;28;20058;-71
2022/06/10 07:18:06;;;;;;;16.77;4.82;;;16.50;99.90;;;;;;5011507;28;20104;-71
2022/06/10 07:20:35;;;;;;;14.43;4.70;;;16.60;99.90;;;;;;5011279;28;20063;-71
2022/06/10 07:23:01;;;;;;;11.93;4.13;;;16.80;99.90;;;;;;5018571;28;20100;-71
2022/06/10 07:25:29;;;;;;;17.55;4.57;;;16.80;99.90;;;;;;5031072;28;20053;-71
2022/06/10 07:27:55;;;;;;;14.60;4.78;;;16.70;99.90;;;;;;5030022;28;20120;-72
2022/06/10 07:30:24;;;;;;;16.70;4.65;;;16.60;99.90;;;;;;5011640;28;20896;-72
2022/06/10 07:32:51;;;;;;;15.35;4.82;;;16.50;99.90;;;;;;5030074;28;20425;-72
2022/06/10 07:35:18;;;;;;;15.05;5.20;;;16.50;99.90;;;;;;5029127;28;20033;-72
2022/06/10 07:37:45;;;;;;;12.30;4.30;;;16.50;99.90;;;;;;5029472;28;20057;-72
2022/06/10 07:41:56;;;;;;;15.85;5.10;;;16.80;99.90;;;;;;5029944;28;20547;-72
2022/06/10 07:43:01;;;;;;;11.32;4.85;;;16.60;99.90;;;;;;5029004;28;20053;-72
2022/06/10 07:45:28;;;;;;;15.88;5.30;;;16.60;99.90;;;;;;5029740;28;20328;-72
2022/06/10 07:47:54;;;;;;;13.90;6.10;;;16.60;99.90;;;;;;5005950;28;20466;-72
2022/06/10 07:50:21;;;;;;;11.75;5.63;;;16.70;99.90;;;;;;5009222;28;20042;-72
2022/06/10 07:52:47;;;;;;;11.25;5.65;;;16.60;99.90;;;;;;5026068;28;20055;-72
2022/06/10 07:55:13;;;;;;;13.65;5.57;;;16.60;99.90;;;;;;5029748;28;20092;-72
2022/06/10 07:57:39;;;;;;;13.75;5.15;;;16.70;99.90;;;;;;5029090;28;20089;-72
2022/06/10 08:00:05;;;;;;;14.90;5.50;;;16.70;99.90;;;;;;5026378;28;20037;-72
2022/06/10 08:02:31;;;;;;;10.13;5.25;;;16.80;99.90;;;;;;5010273;28;20053;-72
2022/06/10 08:04:57;;;;;;;10.43;4.97;;;16.90;99.90;;;;;;5028111;28;20100;-72
2022/06/10 08:07:23;;;;;;;14.20;5.75;;;17.00;99.90;;;;;;5024214;28;20045;-73
2022/06/10 08:09:48;;;;;;;9.88;4.85;;;17.00;99.90;;;;;;5009708;28;20052;-72
2022/06/10 08:12:14;;;;;;;12.23;5.47;;;16.90;99.90;;;;;;5004062;28;20042;-72
2022/06/10 08:14:39;;;;;;;12.38;5.47;;;17.00;99.90;;;;;;5025253;28;20402;-72
2022/06/10 08:17:07;;;;;;;13.70;5.00;;;16.90;99.90;;;;;;5010628;28;20077;-72
2022/06/10 08:19:33;;;;;;;13.23;5.18;;;16.80;99.90;;;;;;5028478;28;20057;-72
2022/06/10 08:24:43;;;;;;;12.93;5.53;;;16.80;99.90;;;;;;5027952;28;20060;-72
2022/06/10 08:27:09;;;;;;;13.40;5.82;;;16.80;99.90;;;;;;5027891;28;20038;-72
2022/06/10 08:29:34;;;;;;;13.32;5.20;;;16.80;99.90;;;;;;5028825;28;20053;-72
2022/06/10 08:32:00;;;;;;;11.32;6.15;;;16.90;99.90;;;;;;5027460;28;20045;-71
2022/06/10 08:34:26;;;;;;;13.65;5.90;;;16.80;99.90;;;;;;5011442;28;20041;-72
2022/06/10 08:36:51;;;;;;;11.52;5.90;;;16.90;99.90;;;;;;5005972;28;20049;-72
2022/06/10 08:39:17;;;;;;;17.17;6.50;;;16.80;99.90;;;;;;4989941;28;20188;-72
2022/06/10 08:42:01;;;;;;;14.40;6.40;;;16.80;99.90;;;;;;5025880;28;20461;-72
2022/06/10 08:44:52;;;;;;;11.73;6.85;;;16.90;99.90;;;;;;5027204;28;20060;-72
2022/06/10 08:47:32;;;;;;;14.18;6.50;;;16.90;99.90;;;;;;5025856;28;20053;-72
2022/06/10 08:50:07;;;;;;;14.88;6.45;;;17.00;99.90;;;;;;5028859;28;20504;-72
2022/06/10 08:52:50;;;;;;;14.80;6.83;;;17.10;99.90;;;;;;5027076;28;20052;-72
2022/06/10 08:55:16;;;;;;;17.52;6.30;;;17.10;99.90;;;;;;5027782;28;20358;-71
2022/06/10 08:57:45;;;;;;;11.25;6.40;;;17.00;99.90;;;;;;5026844;28;20049;-71
2022/06/10 09:00:28;;;;;;;19.65;6.22;;;17.00;99.90;;;;;;5009607;28;20570;-72
2022/06/10 09:03:14;;;;;;;11.95;5.78;;;16.90;99.90;;;;;;5025490;28;20045;-72
2022/06/10 09:05:47;;;;;;;15.25;6.18;;;16.90;99.90;;;;;;5027036;28;20521;-72
2022/06/10 09:08:20;;;;;;;19.10;6.60;;;17.00;99.90;;;;;;5027529;28;20040;-72
2022/06/10 09:10:56;;;;;;;15.63;6.70;;;17.20;99.90;;;;;;5027606;28;20398;-72
2022/06/10 09:13:38;;;;;;;19.42;7.18;;;17.10;99.90;;;;;;5027777;28;20437;-71
2022/06/10 09:16:12;;;;;;;17.30;6.82;;;17.30;99.90;;;;;;5001552;28;20057;-72
2022/06/10 09:18:49;;;;;;;20.33;6.95;;;17.40;99.90;;;;;;5014374;28;20044;-72
2022/06/10 09:21:31;;;;;;;19.27;7.10;;;17.50;99.90;;;;;;5011099;28;20041;-72
2022/06/10 09:24:00;;;;;;;21.40;7.13;;;17.60;99.90;;;;;;5011263;28;20382;-72
2022/06/10 09:26:48;;;;;;;15.90;7.13;;;17.60;99.90;;;;;;5028111;28;20085;-71
2022/06/10 09:29:14;;;;;;;13.18;6.80;;;17.60;99.90;;;;;;5026224;28;20056;-71
2022/06/10 09:32:05;;;;;;;17.98;6.80;;;17.60;99.90;;;;;;5027437;28;20045;-73
2022/06/10 09:34:44;;;;;;;21.60;5.93;;;17.60;99.90;;;;;;4996374;28;20138;-73
2022/06/10 09:37:50;;;;;;;14.50;5.68;;;17.60;99.90;;;;;;5029212;28;20045;-72
2022/06/10 09:41:10;;;;;;;15.40;5.53;;;17.50;99.90;;;;;;5009159;28;20060;-72
2022/06/10 09:43:54;;;;;;;14.95;5.47;;;17.50;99.90;;;;;;4945999;29;20756;-72
2022/06/10 09:46:58;;;;;;;16.70;6.20;;;17.60;99.90;;;;;;5006429;28;20058;-72
2022/06/10 09:49:34;;;;;;;14.57;5.22;;;17.60;99.90;;;;;;5022295;28;20153;-72
2022/06/10 09:52:08;;;;;;;16.00;5.95;;;17.60;99.90;;;;;;5027165;28;20179;-71
2022/06/10 09:55:07;;;;;;;15.93;5.50;;;17.60;99.90;;;;;;5024566;28;20050;-72
2022/06/10 09:57:35;;;;;;;13.60;5.40;;;17.60;99.90;;;;;;5027425;28;20124;-72
2022/06/10 10:00:17;;;;;;;12.18;5.30;;;17.70;99.90;;;;;;5005840;28;20049;-72
2022/06/10 10:02:59;;;;;;;14.10;5.07;;;17.80;99.90;;;;;;4992212;28;20402;-72
2022/06/10 10:05:37;;;;;;;15.80;5.57;;;18.00;99.90;;;;;;5020060;28;20049;-72
2022/06/10 10:08:23;;;;;;;15.30;5.53;;;18.20;99.90;;;;;;5026529;28;20462;-72
2022/06/10 10:10:55;;;;;;;17.63;5.57;;;18.20;99.90;;;;;;5023940;28;20049;-72
2022/06/10 10:14:04;;;;;;;13.50;5.20;;;18.10;99.90;;;;;;5008936;28;20478;-72
2022/06/10 10:16:51;;;;;;;14.48;5.57;;;18.10;99.90;;;;;;5026414;28;20042;-73
2022/06/10 10:19:53;;;;;;;13.32;5.80;;;18.20;99.90;;;;;;5027412;28;20045;-74
2022/06/10 10:22:43;;;;;;;15.18;6.10;;;18.20;99.90;;;;;;5029336;28;20048;-73
2022/06/10 10:25:18;;;;;;;16.73;6.45;;;18.20;99.90;;;;;;5023548;28;20049;-73
2022/06/10 10:27:46;;;;;;;15.80;5.35;;;18.20;99.90;;;;;;5023195;28;20052;-73
2022/06/10 10:30:20;;;;;;;14.27;5.78;;;18.30;99.90;;;;;;5027864;28;20045;-73
2022/06/10 10:32:54;;;;;;;14.63;5.47;;;18.40;99.90;;;;;;5022293;28;20124;-73
2022/06/10 10:35:27;;;;;;;13.98;5.75;;;18.50;99.90;;;;;;5023062;28;20124;-76
2022/06/10 10:38:15;;;;;;;16.30;6.28;;;18.50;99.90;;;;;;5019691;28;20053;-74
2022/06/10 10:40:47;;;;;;;16.20;6.18;;;18.50;99.90;;;;;;5024471;28;20091;-75
2022/06/10 10:43:21;;;;;;;17.40;5.43;;;18.50;99.90;;;;;;5023313;28;20673;-74
2022/06/10 10:46:06;;;;;;;13.18;5.93;;;18.50;99.90;;;;;;5022458;28;20053;-75
2022/06/10 10:48:37;;;;;;;12.77;5.67;;;18.60;99.90;;;;;;5022781;28;20641;-75
2022/06/10 10:51:26;;;;;;;14.10;6.32;;;18.70;99.90;;;;;;4999155;28;20509;-76
2022/06/10 10:54:02;;;;;;;16.98;5.57;;;18.70;99.90;;;;;;4980118;28;20050;-76
2022/06/10 10:56:35;;;;;;;14.05;5.47;;;18.40;99.90;;;;;;5017560;28;20116;-74
2022/06/10 10:59:01;;;;;;;14.90;5.82;;;18.80;99.90;;;;;;5017178;28;20120;-75
2022/06/10 11:01:45;;;;;;;14.13;6.13;;;18.70;99.90;;;;;;5011120;28;20479;-74
2022/06/10 11:04:12;;;;;;;15.95;5.63;;;18.60;99.90;;;;;;5021350;28;20053;-75
2022/06/10 11:06:38;;;;;;;14.80;5.60;;;18.50;99.90;;;;;;4996809;28;20053;-75
2022/06/10 11:09:22;;;;;;;12.40;5.20;;;18.60;99.90;;;;;;4981228;28;20052;-75
2022/06/10 11:11:49;;;;;;;15.20;5.43;;;18.70;99.90;;;;;;5027388;28;20888;-73
2022/06/10 11:14:35;;;;;;;11.52;5.28;;;18.60;99.90;;;;;;5031402;28;20107;-72
2022/06/10 11:17:11;;;;;;;13.55;5.15;;;18.70;99.90;;;;;;5030039;28;20390;-72
2022/06/10 11:19:37;;;;;;;10.52;5.65;;;18.70;99.90;;;;;;4996182;28;20052;-73
2022/06/10 11:22:17;;;;;;;10.65;4.80;;;18.80;99.90;;;;;;5029032;28;20049;-72
2022/06/10 11:24:48;;;;;;;11.60;5.55;;;18.80;99.90;;;;;;5030378;28;20490;-73
2022/06/10 11:27:35;;;;;;;9.13;4.88;;;18.80;99.90;;;;;;5004509;28;20077;-80
2022/06/10 11:30:10;;;;;;;14.55;5.50;;;18.80;99.90;;;;;;5027458;28;20049;-76
2022/06/10 11:32:40;;;;;;;10.07;4.83;;;18.80;99.90;;;;;;5025788;28;20049;-76
2022/06/10 11:35:28;;;;;;;11.77;5.20;;;18.90;99.90;;;;;;5007777;28;20624;-76
2022/06/10 11:38:15;;;;;;;15.63;5.55;;;18.90;99.90;;;;;;5026490;28;20232;-76
2022/06/10 11:40:47;;;;;;;10.13;5.10;;;19.10;99.90;;;;;;5008145;28;20124;-75
2022/06/10 11:43:20;;;;;;;12.27;5.45;;;19.20;99.90;;;;;;5004359;28;20050;-75
2022/06/10 11:46:09;;;;;;;12.07;4.90;;;19.20;99.90;;;;;;5006595;28;20100;-77
2022/06/10 11:48:46;;;;;;;10.70;4.60;;;19.20;99.90;;;;;;5009025;28;20799;-77
2022/06/10 11:51:17;;;;;;;11.60;4.97;;;19.20;99.90;;;;;;4996927;28;20038;-77
2022/06/10 11:54:03;;;;;;;10.73;4.10;;;19.40;99.90;;;;;;5016858;28;20045;-78
2022/06/10 12:00:00;;;;;;;15.00;4.85;;;19.50;99.90;;;;;;5022597;28;20053;-74
2022/06/10 12:02:33;;;;;;;11.77;4.20;;;19.60;99.90;;;;;;5028354;28;20478;-74
2022/06/10 12:05:17;;;;;;;11.98;4.10;;;19.70;99.90;;;;;;5029485;28;20045;-74
2022/06/10 12:07:51;;;;;;;10.93;4.40;;;20.30;99.90;;;;;;5028496;28;20049;-74
2022/06/10 12:10:23;;;;;;;9.45;3.55;;;20.90;99.90;;;;;;5028142;28;20429;-77
2022/06/10 12:12:52;;;;;;;10.25;4.40;;;21.50;99.90;;;;;;5029020;28;20081;-72
2022/06/10 12:15:25;;;;;;;11.52;4.28;;;22.00;99.90;;;;;;5031246;28;20049;-72
2022/06/10 12:17:57;;;;;;;10.63;4.32;;;22.10;99.90;;;;;;5029557;28;20518;-72
2022/06/10 12:20:43;;;;;;;9.95;3.97;;;21.70;99.90;;;;;;5028119;28;20041;-72
2022/06/10 12:23:14;;;;;;;11.23;4.82;;;21.50;99.90;;;;;;5028501;28;20620;-72
2022/06/10 12:26:00;;;;;;;13.98;4.93;;;21.00;99.90;;;;;;5027698;28;20577;-72
2022/06/10 12:28:42;;;;;;;13.90;5.38;;;21.00;99.90;;;;;;5011531;28;20049;-71
2022/06/10 12:31:47;;;;;;;12.95;4.90;;;20.80;99.90;;;;;;5028148;28;20049;-71
2022/06/10 12:34:30;;;;;;;15.60;5.30;;;20.70;99.90;;;;;;5010692;28;20073;-71
2022/06/10 12:37:00;;;;;;;11.45;4.82;;;20.60;99.90;;;;;;5028088;28;20049;-72
2022/06/10 12:39:52;;;;;;;13.52;4.88;;;20.60;99.90;;;;;;5010400;28;20085;-72
2022/06/10 12:42:42;;;;;;;11.30;5.20;;;20.60;99.90;;;;;;5014843;28;20149;-72
2022/06/10 12:45:33;;;;;;;15.63;5.25;;;20.60;99.90;;;;;;5027922;28;20041;-72
2022/06/10 12:48:05;;;;;;;13.75;5.13;;;20.50;99.90;;;;;;5001794;28;20498;-73
2022/06/10 12:50:37;;;;;;;9.30;4.63;;;20.50;99.90;;;;;;5027830;28;20409;-72
2022/06/10 12:53:28;;;;;;;13.77;4.40;;;20.50;99.90;;;;;;5027597;28;20450;-71
2022/06/10 12:55:56;;;;;;;10.52;4.68;;;20.60;99.90;;;;;;5030172;28;20466;-70
2022/06/10 12:58:37;;;;;;;11.75;4.60;;;20.80;99.90;;;;;;5028177;28;20505;-71
2022/06/10 13:01:26;;;;;;;11.90;4.57;;;20.80;99.90;;;;;;5009282;28;20041;-71
2022/06/10 13:03:56;;;;;;;14.25;4.65;;;20.80;99.90;;;;;;5000412;28;20151;-71
2022/06/10 13:06:57;;;;;;;13.00;4.65;;;20.70;99.90;;;;;;5027972;28;20554;-71
2022/06/10 13:09:27;;;;;;;14.52;4.80;;;20.70;99.90;;;;;;5012385;28;20076;-71
2022/06/10 13:11:58;;;;;;;11.40;4.50;;;20.70;99.90;;;;;;5028545;28;20128;-72
2022/06/10 13:14:37;;;;;;;15.07;4.88;;;20.60;99.90;;;;;;5027234;28;20120;-72
2022/06/10 13:17:06;;;;;;;14.38;4.85;;;20.50;99.90;;;;;;5027192;28;20409;-72
2022/06/10 13:19:41;;;;;;;11.70;4.72;;;20.60;99.90;;;;;;5028548;28;20041;-72